Time;durP1;ratioP1;P1;durP2;ratioP2;P2;SDS_P1;SDS_P2;PMS_P1;PMS_P2;Temp;Humidity;BMP_temperature;BMP_pressure;BME280_temperature;BME280_humidity;BME280_pressure;Samples;Min_cycle;Max_cycle;Signal;HPM_P1;HPM_P2
2021/04/06 00:01:36;;;;;;;3.28;1.38;;;;;;;-1.05;87.78;96232.97;4984833;28;20509;-72
2021/04/06 00:04:06;;;;;;;2.55;1.02;;;;;;;-1.06;86.55;96233.84;4968484;28;20689;-71
2021/04/06 00:06:35;;;;;;;3.95;1.10;;;;;;;-1.09;86.80;96232.22;4969323;28;20537;-70
2021/04/06 00:09:07;;;;;;;3.80;1.85;;;;;;;-0.94;86.78;96231.00;4967596;28;20624;-69
2021/04/06 00:11:36;;;;;;;5.35;2.05;;;;;;;-0.88;86.15;96235.97;4964575;28;20468;-71
2021/04/06 00:14:05;;;;;;;3.90;1.70;;;;;;;-0.81;85.42;96232.41;4952535;28;20278;-71
2021/04/06 00:16:32;;;;;;;9.02;1.73;;;;;;;-0.89;84.45;96234.31;4971239;28;20618;-71
2021/04/06 00:19:03;;;;;;;1.75;0.80;;;;;;;-0.94;84.08;96233.56;4969956;28;20228;-72
2021/04/06 00:21:32;;;;;;;6.20;1.20;;;;;;;-1.06;84.35;96232.13;4973376;28;20193;-70
2021/04/06 00:24:02;;;;;;;5.88;2.05;;;;;;;-1.20;84.05;96233.34;4967758;28;20293;-70
2021/04/06 00:26:45;;;;;;;23.70;3.17;;;;;;;-1.16;84.08;96238.34;4965858;28;20613;-71
2021/04/06 00:29:15;;;;;;;12.68;1.80;;;;;;;-1.14;84.44;96234.03;4949133;28;21128;-70
2021/04/06 00:31:43;;;;;;;3.17;1.40;;;;;;;-1.15;84.08;96232.34;4947189;28;20205;-71
2021/04/06 00:34:12;;;;;;;6.90;1.60;;;;;;;-1.17;84.03;96230.69;4947695;28;20232;-71
2021/04/06 00:36:40;;;;;;;3.50;1.30;;;;;;;-1.12;84.28;96226.34;4949266;28;20530;-72
2021/04/06 00:39:08;;;;;;;4.00;1.40;;;;;;;-1.05;83.81;96240.66;4947551;28;20703;-70
2021/04/06 00:41:37;;;;;;;10.45;1.50;;;;;;;-1.02;84.10;96233.75;4951677;28;20197;-71
2021/04/06 00:44:12;;;;;;;5.40;1.25;;;;;;;-1.05;83.56;96227.88;4948342;28;20744;-72
2021/04/06 00:46:45;;;;;;;5.88;0.77;;;;;;;-1.03;83.66;96238.88;4948995;28;20191;-71
2021/04/06 00:49:16;;;;;;;2.10;0.82;;;;;;;-1.10;83.73;96234.78;4947820;28;20707;-72
2021/04/06 00:51:43;;;;;;;2.05;1.20;;;;;;;-1.15;83.89;96236.59;4949430;28;20676;-71
2021/04/06 00:54:13;;;;;;;2.08;1.05;;;;;;;-1.14;84.11;96235.72;4939263;28;20233;-71
2021/04/06 00:56:42;;;;;;;6.05;1.10;;;;;;;-1.24;83.86;96250.44;4937997;28;20715;-71
2021/04/06 00:59:10;;;;;;;2.35;1.05;;;;;;;-1.35;84.39;96243.84;4968457;28;20236;-71
2021/04/06 01:01:39;;;;;;;4.55;1.20;;;;;;;-1.38;84.61;96238.84;4939915;28;20585;-71
2021/04/06 01:04:09;;;;;;;3.10;1.05;;;;;;;-1.41;84.21;96236.34;4961211;28;20858;-71
2021/04/06 01:07:08;;;;;;;12.15;1.30;;;;;;;-1.43;84.25;96241.50;4962036;28;20193;-71
2021/04/06 01:09:44;;;;;;;1.85;0.90;;;;;;;-1.42;84.01;96238.06;4947965;28;20287;-71
2021/04/06 01:12:13;;;;;;;3.03;0.93;;;;;;;-1.42;84.31;96237.25;4948649;28;20629;-71
2021/04/06 01:14:42;;;;;;;9.70;1.52;;;;;;;-1.53;83.84;96234.91;4950360;28;20588;-71
2021/04/06 01:17:11;;;;;;;5.30;1.23;;;;;;;-1.58;84.02;96239.25;4950286;28;20567;-71
2021/04/06 01:19:40;;;;;;;4.80;0.85;;;;;;;-1.72;83.85;96214.91;4950942;28;20200;-70
2021/04/06 01:22:08;;;;;;;1.88;1.05;;;;;;;-1.65;83.60;96237.72;4946294;28;20199;-71
2021/04/06 01:24:37;;;;;;;5.70;0.90;;;;;;;-1.64;84.14;96236.00;4947981;28;20242;-71
2021/04/06 01:27:08;;;;;;;3.20;1.00;;;;;;;-1.68;84.96;96229.28;4965707;28;20219;-71
2021/04/06 01:29:36;;;;;;;2.85;1.08;;;;;;;-1.77;85.27;96226.94;4984700;28;20212;-72
2021/04/06 01:32:04;;;;;;;7.68;1.23;;;;;;;-2.00;84.67;96222.28;4969185;28;20200;-70
2021/04/06 01:34:31;;;;;;;1.45;0.90;;;;;;;-2.13;84.59;96225.94;4968374;28;20565;-72
2021/04/06 01:36:59;;;;;;;2.95;1.00;;;;;;;-2.16;85.11;96236.19;4967678;28;20190;-70
2021/04/06 01:39:28;;;;;;;1.63;0.85;;;;;;;-2.31;86.43;96235.63;4966972;28;20516;-70
2021/04/06 01:42:00;;;;;;;2.25;0.82;;;;;;;-2.26;86.12;96232.16;4967234;28;20186;-70
2021/04/06 01:44:27;;;;;;;1.80;0.95;;;;;;;-2.25;86.37;96220.25;4973002;28;20214;-70
2021/04/06 01:46:55;;;;;;;9.07;1.50;;;;;;;-2.27;86.55;96215.16;4967499;28;20201;-69
2021/04/06 01:49:23;;;;;;;8.98;1.33;;;;;;;-2.30;86.73;96217.78;4964526;28;20569;-71
2021/04/06 01:51:54;;;;;;;6.88;1.05;;;;;;;-2.28;86.56;96212.66;4957395;28;20209;-71
2021/04/06 01:54:21;;;;;;;3.90;0.82;;;;;;;-2.33;86.17;96220.41;4966997;28;20470;-71
2021/04/06 01:56:52;;;;;;;3.55;0.98;;;;;;;-2.30;86.67;96222.88;4967226;28;20720;-71
2021/04/06 01:59:24;;;;;;;5.00;0.90;;;;;;;-2.33;86.56;96220.41;4968524;28;20253;-71
2021/04/06 02:01:55;;;;;;;12.30;0.90;;;;;;;-2.30;86.68;96227.13;4967191;28;20783;-70
2021/04/06 02:04:32;;;;;;;6.22;1.17;;;;;;;-2.24;87.22;96217.66;4957887;28;20245;-72
2021/04/06 02:07:01;;;;;;;1.88;0.80;;;;;;;-2.23;86.70;96218.50;4964773;28;20581;-71
2021/04/06 02:09:28;;;;;;;4.00;1.30;;;;;;;-2.33;86.69;96202.56;4971948;28;20634;-70
2021/04/06 02:11:55;;;;;;;4.72;1.42;;;;;;;-2.36;87.00;96217.06;4964362;28;20585;-70
2021/04/06 02:14:24;;;;;;;6.85;1.00;;;;;;;-2.39;86.88;96206.91;4967622;28;20704;-70
2021/04/06 02:16:52;;;;;;;5.72;1.20;;;;;;;-2.40;87.09;96205.25;4965659;28;20722;-71
2021/04/06 02:19:21;;;;;;;3.72;1.00;;;;;;;-2.45;86.66;96201.94;4969141;28;20222;-69
2021/04/06 02:21:53;;;;;;;12.02;1.90;;;;;;;-2.43;86.92;96202.75;4966535;28;20629;-69
2021/04/06 02:24:35;;;;;;;3.63;1.27;;;;;;;-2.52;85.84;96203.75;4966637;28;20213;-73
2021/04/06 02:27:14;;;;;;;1.75;0.93;;;;;;;-2.41;86.23;96199.31;4963518;28;20296;-70
2021/04/06 02:29:43;;;;;;;4.38;1.10;;;;;;;-2.37;85.75;96198.38;4967933;28;20632;-71
2021/04/06 02:32:12;;;;;;;4.85;1.23;;;;;;;-2.44;85.79;96209.56;4953127;28;20740;-71
2021/04/06 02:34:43;;;;;;;2.90;1.02;;;;;;;-2.43;85.74;96185.75;4959033;28;20195;-70
2021/04/06 02:37:19;;;;;;;3.20;0.80;;;;;;;-2.48;85.31;96189.25;4965033;28;20190;-70
2021/04/06 02:39:48;;;;;;;1.98;1.08;;;;;;;-2.60;85.18;96185.22;4965758;28;20210;-69
2021/04/06 02:42:24;;;;;;;2.83;0.82;;;;;;;-2.64;85.46;96180.22;4965089;28;20553;-70
2021/04/06 02:44:55;;;;;;;8.63;1.25;;;;;;;-2.63;85.96;96182.75;4947383;28;20699;-70
2021/04/06 02:47:24;;;;;;;6.60;1.58;;;;;;;-2.66;85.85;96194.69;4977188;28;20677;-71
2021/04/06 02:49:52;;;;;;;1.63;0.80;;;;;;;-2.51;85.71;96191.88;4963994;28;20520;-71
2021/04/06 02:52:19;;;;;;;5.88;1.65;;;;;;;-2.51;85.29;96186.78;4958872;28;20222;-71
2021/04/06 02:54:47;;;;;;;5.35;1.60;;;;;;;-2.48;85.28;96186.72;4958504;28;20190;-70
2021/04/06 02:57:19;;;;;;;8.85;1.80;;;;;;;-2.44;85.18;96190.91;4957380;28;20191;-70
2021/04/06 02:59:46;;;;;;;3.85;1.60;;;;;;;-2.46;84.89;96190.91;4959958;28;20634;-70
2021/04/06 03:02:14;;;;;;;5.47;1.48;;;;;;;-2.55;85.07;96170.72;4969515;28;20190;-71
2021/04/06 03:04:42;;;;;;;2.25;1.10;;;;;;;-2.47;84.74;96179.06;4968033;28;20225;-70
2021/04/06 03:07:17;;;;;;;3.47;1.70;;;;;;;-2.41;84.72;96176.41;4968097;28;20175;-70
2021/04/06 03:09:52;;;;;;;10.57;1.10;;;;;;;-2.43;85.33;96184.94;4970941;28;20606;-69
2021/04/06 03:12:20;;;;;;;2.83;1.00;;;;;;;-2.43;84.45;96174.75;4969720;28;20596;-70
2021/04/06 03:14:48;;;;;;;6.78;1.02;;;;;;;-2.43;85.10;96164.56;4973034;28;20488;-70
2021/04/06 03:17:16;;;;;;;15.18;1.60;;;;;;;-2.45;85.33;96171.38;4969388;28;20277;-72
2021/04/06 03:19:44;;;;;;;4.75;1.38;;;;;;;-2.41;85.61;96170.44;4971877;28;20197;-71
2021/04/06 03:22:13;;;;;;;6.05;0.85;;;;;;;-2.46;85.70;96168.00;4965913;28;20554;-70
2021/04/06 03:24:41;;;;;;;12.52;0.80;;;;;;;-2.47;85.64;96163.78;4968811;28;20646;-70
2021/04/06 03:27:08;;;;;;;4.00;1.27;;;;;;;-2.42;85.90;96167.06;4968546;28;20223;-70
2021/04/06 03:29:35;;;;;;;7.95;1.10;;;;;;;-2.41;85.65;96162.81;4966784;28;20707;-72
2021/04/06 03:32:03;;;;;;;2.67;0.98;;;;;;;-2.38;85.32;96158.50;4968483;28;20524;-70
2021/04/06 03:34:32;;;;;;;3.67;1.35;;;;;;;-2.40;85.56;96155.16;4967824;28;20779;-71
2021/04/06 03:37:03;;;;;;;11.20;1.13;;;;;;;-2.45;86.59;96163.72;4971820;28;20194;-69
2021/04/06 03:39:32;;;;;;;2.55;0.90;;;;;;;-2.39;86.03;96155.97;4969035;28;20178;-70
2021/04/06 03:41:59;;;;;;;2.17;0.85;;;;;;;-2.38;86.67;96158.50;4970397;28;20194;-71
2021/04/06 03:44:28;;;;;;;2.85;1.00;;;;;;;-2.33;86.86;96166.91;4958481;28;20209;-69
2021/04/06 03:46:57;;;;;;;3.78;1.27;;;;;;;-2.29;86.24;96168.50;4968767;28;20186;-70
2021/04/06 03:49:27;;;;;;;6.10;1.23;;;;;;;-2.21;86.13;96170.91;4967417;28;20542;-69
2021/04/06 03:51:56;;;;;;;4.70;0.90;;;;;;;-2.18;86.56;96170.84;4971031;28;20198;-71
2021/04/06 03:54:31;;;;;;;14.55;1.55;;;;;;;-2.18;86.49;96165.75;4945214;28;20527;-69
2021/04/06 03:56:58;;;;;;;6.38;1.10;;;;;;;-2.14;85.91;96167.38;4946726;28;20630;-69
2021/04/06 03:59:27;;;;;;;7.40;1.00;;;;;;;-2.23;86.08;96154.78;4968470;28;20190;-70
2021/04/06 04:01:54;;;;;;;9.77;1.95;;;;;;;-2.14;86.75;96168.19;4968108;28;20198;-70
2021/04/06 04:04:21;;;;;;;9.52;3.25;;;;;;;-2.22;86.54;96151.41;4951349;28;20187;-70
2021/04/06 04:06:48;;;;;;;5.68;1.23;;;;;;;-2.03;87.17;96170.53;4945963;28;20749;-70
2021/04/06 04:09:16;;;;;;;8.32;1.23;;;;;;;-1.97;86.67;96171.25;4949477;28;20640;-71
2021/04/06 04:11:43;;;;;;;2.47;1.65;;;;;;;-1.90;86.15;96171.97;4949407;28;20196;-70
2021/04/06 04:14:10;;;;;;;10.13;1.30;;;;;;;-1.88;86.74;96175.31;4949558;28;20274;-70
2021/04/06 04:16:38;;;;;;;5.15;1.38;;;;;;;-1.85;86.54;96170.16;4950013;28;20196;-70
2021/04/06 04:19:05;;;;;;;2.63;1.08;;;;;;;-1.77;86.78;96166.56;4951227;28;20717;-72
2021/04/06 04:21:32;;;;;;;10.68;2.58;;;;;;;-1.71;86.97;96165.59;4948844;28;20207;-71
2021/04/06 04:23:58;;;;;;;6.82;1.30;;;;;;;-1.73;87.17;96167.31;4950105;28;20222;-71
2021/04/06 04:26:26;;;;;;;7.50;2.13;;;;;;;-1.66;87.01;96162.06;4961923;28;20238;-70
2021/04/06 04:28:53;;;;;;;11.30;1.42;;;;;;;-1.58;87.03;96172.09;4968591;28;20227;-70
2021/04/06 04:31:20;;;;;;;7.28;1.33;;;;;;;-1.47;86.91;96172.72;4969001;28;20293;-72
2021/04/06 04:33:47;;;;;;;2.53;0.93;;;;;;;-1.39;85.95;96171.63;4968722;28;20226;-71
2021/04/06 04:36:14;;;;;;;9.82;1.85;;;;;;;-1.42;86.35;96179.38;4969408;28;20750;-70
2021/04/06 04:38:41;;;;;;;3.17;1.33;;;;;;;-1.38;86.16;96167.38;4967956;28;20937;-70
2021/04/06 04:41:08;;;;;;;16.60;1.80;;;;;;;-1.45;86.17;96163.28;4966856;28;20720;-69
2021/04/06 04:43:36;;;;;;;8.93;1.50;;;;;;;-1.39;86.15;96168.28;4967785;28;20276;-70
2021/04/06 04:46:03;;;;;;;6.35;1.23;;;;;;;-1.37;86.26;96161.41;4967111;28;20585;-71
2021/04/06 04:48:30;;;;;;;5.95;1.73;;;;;;;-1.39;85.89;96170.81;4966392;28;20218;-71
2021/04/06 04:50:58;;;;;;;12.25;1.73;;;;;;;-1.36;85.92;96160.53;4969597;28;20829;-71
2021/04/06 04:53:24;;;;;;;15.18;1.52;;;;;;;-1.36;86.05;96166.47;4965677;28;20683;-73
2021/04/06 04:55:51;;;;;;;4.57;1.45;;;;;;;-1.31;86.19;96164.69;4983751;28;20202;-73
2021/04/06 04:58:18;;;;;;;5.63;1.70;;;;;;;-1.34;86.22;96169.00;4968783;28;20788;-69
2021/04/06 05:00:46;;;;;;;11.60;2.33;;;;;;;-1.41;86.36;96170.03;4967085;28;20253;-70
2021/04/06 05:03:13;;;;;;;5.32;2.30;;;;;;;-1.40;86.31;96164.03;4963569;28;20218;-70
2021/04/06 05:05:40;;;;;;;9.20;2.28;;;;;;;-1.44;86.38;96164.97;4970844;28;20203;-71
2021/04/06 05:08:07;;;;;;;8.65;2.65;;;;;;;-1.47;87.17;96160.78;4968354;28;20269;-72
2021/04/06 05:10:35;;;;;;;15.43;1.67;;;;;;;-1.39;87.13;96153.78;4966676;28;20525;-71
2021/04/06 05:13:03;;;;;;;3.78;1.45;;;;;;;-1.39;86.95;96160.63;4966973;28;20232;-70
2021/04/06 05:15:30;;;;;;;5.40;1.35;;;;;;;-1.35;87.12;96162.19;4962625;28;20194;-70
2021/04/06 05:17:58;;;;;;;4.30;1.83;;;;;;;-1.27;86.83;96161.16;4967961;28;20222;-70
2021/04/06 05:20:25;;;;;;;8.82;1.30;;;;;;;-1.25;87.21;96159.41;4969164;28;20650;-71
2021/04/06 05:22:52;;;;;;;6.97;1.88;;;;;;;-1.27;86.93;96160.34;4967898;28;20568;-70
2021/04/06 05:25:20;;;;;;;6.63;1.75;;;;;;;-1.30;86.75;96153.59;4972136;28;20742;-70
2021/04/06 05:27:47;;;;;;;6.55;1.65;;;;;;;-1.33;86.27;96152.81;4966809;28;20219;-70
2021/04/06 05:30:14;;;;;;;10.70;2.08;;;;;;;-1.28;86.96;96156.09;4964618;28;20595;-71
2021/04/06 05:32:42;;;;;;;6.50;1.90;;;;;;;-1.28;86.40;96149.28;4964658;28;20628;-71
2021/04/06 05:35:11;;;;;;;5.00;1.13;;;;;;;-1.25;86.64;96153.47;4965294;28;20202;-73
2021/04/06 05:37:38;;;;;;;10.07;1.45;;;;;;;-1.22;86.69;96154.25;4965394;28;20248;-71
2021/04/06 05:40:06;;;;;;;15.18;1.70;;;;;;;-1.20;86.37;96146.56;4969380;28;20206;-71
2021/04/06 05:42:33;;;;;;;15.07;1.50;;;;;;;-1.13;86.48;96150.59;4966222;28;20223;-71
2021/04/06 05:45:01;;;;;;;9.65;1.80;;;;;;;-1.14;85.59;96148.94;4967413;28;20650;-69
2021/04/06 05:47:35;;;;;;;5.13;1.75;;;;;;;-1.05;85.91;96153.84;4967290;28;20771;-70
2021/04/06 05:50:04;;;;;;;4.28;1.00;;;;;;;-0.94;85.36;96154.41;4967909;28;20193;-70
2021/04/06 05:52:32;;;;;;;4.38;1.45;;;;;;;-0.92;84.61;96150.09;4966423;28;20283;-70
2021/04/06 05:55:00;;;;;;;7.00;1.35;;;;;;;-0.92;85.02;96157.75;4966361;28;20234;-71
2021/04/06 05:57:28;;;;;;;8.57;1.95;;;;;;;-0.81;85.39;96160.88;4967048;28;20300;-71
2021/04/06 05:59:57;;;;;;;10.48;2.00;;;;;;;-0.88;84.91;96169.56;4967478;28;20202;-70
2021/04/06 06:02:25;;;;;;;14.32;1.75;;;;;;;-0.88;85.21;96180.63;4955022;28;20211;-72
2021/04/06 06:04:55;;;;;;;7.15;2.00;;;;;;;-0.95;85.51;96178.25;4954673;28;20792;-70
2021/04/06 06:07:23;;;;;;;6.13;1.73;;;;;;;-1.00;86.00;96169.88;4958917;28;20234;-71
2021/04/06 06:09:51;;;;;;;13.43;2.83;;;;;;;-0.92;86.24;96173.06;4966333;28;20821;-71
2021/04/06 06:12:19;;;;;;;5.18;1.50;;;;;;;-0.83;85.84;96188.19;4980961;28;20223;-68
2021/04/06 06:14:48;;;;;;;10.30;1.50;;;;;;;-0.76;85.48;96182.06;4968514;28;20631;-70
2021/04/06 06:17:18;;;;;;;5.88;1.83;;;;;;;-0.54;85.27;96175.53;4963981;28;20245;-72
2021/04/06 06:19:48;;;;;;;5.25;1.52;;;;;;;-0.47;83.58;96177.84;4966695;28;20267;-70
2021/04/06 06:22:16;;;;;;;3.63;1.75;;;;;;;-0.34;83.56;96181.78;4964881;28;20242;-71
2021/04/06 06:24:46;;;;;;;4.03;1.20;;;;;;;-0.25;83.43;96183.25;4966510;28;20214;-69
2021/04/06 06:27:36;;;;;;;4.22;1.30;;;;;;;-0.23;82.86;96186.59;4969242;28;20230;-71
2021/04/06 06:30:29;;;;;;;5.50;1.70;;;;;;;-0.17;82.70;96186.44;4964850;28;20844;-73
2021/04/06 06:33:16;;;;;;;6.35;1.60;;;;;;;-0.17;83.06;96181.31;4964966;28;20791;-71
2021/04/06 06:35:45;;;;;;;7.57;1.55;;;;;;;-0.17;83.36;96181.31;4959067;28;20191;-71
2021/04/06 06:38:17;;;;;;;4.50;1.17;;;;;;;-0.10;82.87;96180.28;4964932;28;20719;-70
2021/04/06 06:40:46;;;;;;;7.72;1.55;;;;;;;-0.07;83.89;96186.97;4967508;28;20301;-70
2021/04/06 06:43:20;;;;;;;7.35;2.17;;;;;;;-0.06;83.32;96185.25;4969768;28;20230;-73
2021/04/06 06:45:55;;;;;;;8.07;1.58;;;;;;;-0.08;83.55;96181.88;4965872;28;20607;-73
2021/04/06 06:48:27;;;;;;;10.35;1.30;;;;;;;0.04;84.04;96172.19;4961894;28;20541;-72
2021/04/06 06:50:55;;;;;;;4.25;1.70;;;;;;;0.11;83.46;96176.25;4947656;28;20643;-74
2021/04/06 06:53:34;;;;;;;6.38;1.90;;;;;;;0.19;83.10;96171.75;4959004;28;20221;-73
2021/04/06 06:56:02;;;;;;;5.82;1.63;;;;;;;0.24;83.22;96174.16;4962962;28;20616;-73
2021/04/06 06:58:35;;;;;;;8.65;1.73;;;;;;;0.73;82.70;96182.88;4945520;28;20243;-71
2021/04/06 07:01:03;;;;;;;6.00;2.38;;;;;;;1.10;80.37;96169.78;4962614;28;20222;-73
2021/04/06 07:03:33;;;;;;;19.92;2.97;;;;;;;1.20;78.89;96174.53;4943837;28;20665;-72
2021/04/06 07:06:21;;;;;;;12.70;2.08;;;;;;;0.99;78.91;96172.69;4948143;28;20704;-72
2021/04/06 07:08:53;;;;;;;8.32;1.73;;;;;;;0.79;79.92;96166.47;4959034;28;20704;-73
2021/04/06 07:11:21;;;;;;;7.25;2.25;;;;;;;0.79;80.07;96169.03;4945119;28;20194;-73
2021/04/06 07:13:52;;;;;;;11.57;2.05;;;;;;;1.30;79.11;96169.94;4959651;28;20284;-72
2021/04/06 07:16:28;;;;;;;3.30;1.70;;;;;;;2.20;75.79;96167.56;4950418;28;20183;-73
2021/04/06 07:18:58;;;;;;;5.05;1.70;;;;;;;2.31;73.97;96167.19;4963774;28;20532;-73
2021/04/06 07:21:26;;;;;;;12.90;2.13;;;;;;;1.81;74.79;96163.88;4962727;28;20210;-73
2021/04/06 07:24:01;;;;;;;6.57;1.60;;;;;;;2.08;76.24;96170.59;4957728;28;20667;-74
2021/04/06 07:26:29;;;;;;;11.18;1.85;;;;;;;2.38;75.34;96163.50;4957419;28;20256;-73
2021/04/06 07:28:57;;;;;;;11.27;4.82;;;;;;;2.77;75.45;96167.13;4966606;28;20218;-74
2021/04/06 07:31:25;;;;;;;15.68;4.90;;;;;;;3.60;72.33;96149.16;4970797;28;20206;-74
2021/04/06 07:33:52;;;;;;;7.20;2.03;;;;;;;3.41;69.94;96151.66;4967943;28;20317;-74
2021/04/06 07:36:21;;;;;;;5.50;1.60;;;;;;;3.21;71.90;96153.34;4969433;28;20194;-74
2021/04/06 07:38:51;;;;;;;9.40;2.30;;;;;;;3.24;72.94;96159.19;4967540;28;20245;-74
2021/04/06 07:41:21;;;;;;;13.15;3.38;;;;;;;3.50;72.74;96156.41;4961488;28;20509;-74
2021/04/06 07:43:49;;;;;;;6.43;1.90;;;;;;;4.16;70.71;96161.22;4971389;28;20723;-73
2021/04/06 07:46:39;;;;;;;8.82;2.50;;;;;;;4.95;68.63;96161.84;4970420;28;20641;-73
2021/04/06 07:49:08;;;;;;;9.77;3.00;;;;;;;4.65;68.84;96168.44;4967385;28;20652;-74
2021/04/06 07:51:40;;;;;;;9.90;2.28;;;;;;;3.92;68.38;96170.03;4969414;28;20198;-74
2021/04/06 07:54:09;;;;;;;7.65;1.70;;;;;;;3.69;72.60;96159.88;4970910;28;20514;-74
2021/04/06 07:56:57;;;;;;;9.15;1.95;;;;;;;3.72;72.66;96170.03;4969978;28;20195;-75
2021/04/06 07:59:51;;;;;;;11.75;2.30;;;;;;;3.40;73.60;96162.84;4969822;28;20284;-74
2021/04/06 08:02:25;;;;;;;5.35;1.98;;;;;;;3.32;74.79;96167.44;4964869;28;20230;-74
2021/04/06 08:04:54;;;;;;;2.38;1.20;;;;;;;3.30;74.35;96169.25;4963203;28;20197;-73
2021/04/06 08:07:24;;;;;;;7.00;2.13;;;;;;;3.28;74.70;96171.03;4948506;28;20662;-73
2021/04/06 08:09:52;;;;;;;4.60;1.55;;;;;;;3.15;73.67;96167.28;4965401;28;20502;-73
2021/04/06 08:12:22;;;;;;;13.65;2.30;;;;;;;3.13;74.15;96171.66;4947183;28;20221;-73
2021/04/06 08:14:52;;;;;;;14.98;2.47;;;;;;;2.93;74.53;96179.31;4954056;28;20582;-72
2021/04/06 08:17:44;;;;;;;7.63;2.47;;;;;;;2.41;75.13;96183.91;4949779;28;20860;-72
2021/04/06 08:20:21;;;;;;;12.23;2.80;;;;;;;2.28;77.27;96191.25;4946655;28;20615;-73
2021/04/06 08:22:51;;;;;;;7.53;1.77;;;;;;;2.27;76.71;96189.56;4948626;28;20747;-73
2021/04/06 08:25:43;;;;;;;6.10;1.60;;;;;;;2.50;76.22;96192.13;4951904;28;20295;-73
2021/04/06 08:28:39;;;;;;;3.72;2.50;;;;;;;2.50;76.40;96199.81;4963549;28;20757;-73
2021/04/06 08:31:22;;;;;;;5.70;1.70;;;;;;;2.59;75.77;96196.09;4965957;28;20190;-72
2021/04/06 08:33:51;;;;;;;8.27;1.30;;;;;;;2.36;76.05;96184.09;4966964;28;20769;-72
2021/04/06 08:36:28;;;;;;;9.63;2.60;;;;;;;1.93;76.88;96186.53;4969327;28;20182;-73
2021/04/06 08:38:57;;;;;;;4.55;1.20;;;;;;;1.72;78.09;96182.16;4964959;28;20230;-73
2021/04/06 08:41:38;;;;;;;3.05;1.88;;;;;;;1.51;78.25;96180.31;4969719;28;20695;-73
2021/04/06 08:44:10;;;;;;;12.15;2.65;;;;;;;1.49;79.78;96178.69;4950460;28;20218;-72
2021/04/06 08:46:46;;;;;;;7.45;1.83;;;;;;;1.40;79.10;96182.41;4948514;28;20272;-74
2021/04/06 08:49:16;;;;;;;8.00;1.70;;;;;;;1.17;81.14;96182.31;4946096;28;20641;-73
2021/04/06 08:51:44;;;;;;;17.77;2.85;;;;;;;1.58;82.43;96193.75;4980255;28;20689;-72
2021/04/06 08:54:15;;;;;;;4.45;2.00;;;;;;;2.21;82.14;96187.22;4951267;28;20222;-73
2021/04/06 08:56:44;;;;;;;9.25;2.05;;;;;;;2.75;79.75;96192.03;4967207;28;20493;-74
2021/04/06 08:59:17;;;;;;;9.80;2.60;;;;;;;2.93;79.24;96189.59;4969992;28;20922;-73
2021/04/06 09:01:45;;;;;;;5.50;1.63;;;;;;;3.28;78.05;96189.03;4966807;28;20211;-74
2021/04/06 09:04:15;;;;;;;15.88;2.40;;;;;;;3.23;77.63;96187.56;4949380;28;20234;-73
2021/04/06 09:06:43;;;;;;;9.27;3.10;;;;;;;3.08;77.00;96188.16;4963366;28;20583;-73
2021/04/06 09:09:11;;;;;;;12.18;2.15;;;;;;;3.01;75.74;96187.56;4952716;28;20616;-74
2021/04/06 09:11:39;;;;;;;10.77;2.15;;;;;;;3.35;77.59;96187.91;4946803;28;20184;-72
2021/04/06 09:14:07;;;;;;;5.30;1.50;;;;;;;3.63;74.51;96179.88;4962240;28;20725;-74
2021/04/06 09:16:36;;;;;;;9.27;1.63;;;;;;;3.89;73.37;96180.44;4979241;28;20690;-73
2021/04/06 09:19:07;;;;;;;9.25;1.38;;;;;;;3.97;73.18;96188.66;4951648;28;20690;-73
2021/04/06 09:21:36;;;;;;;6.30;1.48;;;;;;;3.78;72.37;96182.66;4981547;28;20222;-73
2021/04/06 09:24:05;;;;;;;11.25;1.92;;;;;;;3.90;73.53;96169.25;4947259;28;20546;-73
2021/04/06 09:26:33;;;;;;;4.68;2.15;;;;;;;4.04;71.83;96185.78;4962273;28;20601;-72
2021/04/06 09:29:07;;;;;;;6.28;2.55;;;;;;;4.23;70.99;96185.81;4946679;28;20250;-73
2021/04/06 09:31:36;;;;;;;8.50;1.33;;;;;;;4.00;71.29;96189.38;4948005;28;21208;-73
2021/04/06 09:34:05;;;;;;;9.82;1.70;;;;;;;3.89;71.61;96189.91;4946257;28;20225;-72
2021/04/06 09:36:32;;;;;;;9.57;2.45;;;;;;;4.12;72.06;96188.84;4959931;28;20602;-72
2021/04/06 09:39:04;;;;;;;10.95;1.75;;;;;;;4.22;70.41;96179.00;4946173;28;20715;-74
2021/04/06 09:41:33;;;;;;;5.53;1.55;;;;;;;4.40;71.54;96186.75;4948449;28;20258;-72
2021/04/06 09:44:01;;;;;;;2.92;1.17;;;;;;;4.32;70.25;96185.41;4947733;28;20232;-73
2021/04/06 09:46:37;;;;;;;9.82;2.20;;;;;;;4.01;70.63;96185.06;4949426;28;20576;-73
2021/04/06 09:49:05;;;;;;;9.73;1.48;;;;;;;3.59;72.02;96181.75;4946942;28;20225;-73
2021/04/06 09:51:32;;;;;;;7.18;1.45;;;;;;;3.29;71.36;96184.72;4946193;28;20570;-73
2021/04/06 09:54:02;;;;;;;10.95;1.70;;;;;;;3.19;73.57;96197.13;4951474;28;20756;-73
2021/04/06 09:56:29;;;;;;;3.92;1.48;;;;;;;3.05;72.30;96190.84;4937466;28;20642;-73
2021/04/06 09:58:57;;;;;;;4.05;1.50;;;;;;;2.88;73.69;96190.69;4942875;28;20223;-73
2021/04/06 10:01:27;;;;;;;10.90;1.83;;;;;;;3.41;73.43;96181.66;4981906;28;20605;-73
2021/04/06 10:03:57;;;;;;;10.45;2.78;;;;;;;3.72;71.46;96176.91;4947717;28;20238;-73
2021/04/06 10:06:39;;;;;;;4.20;1.60;;;;;;;3.85;70.37;96172.91;4949555;28;20623;-72
2021/04/06 10:09:22;;;;;;;6.53;2.10;;;;;;;3.86;69.12;96187.47;4948037;28;20270;-72
2021/04/06 10:11:50;;;;;;;6.10;1.75;;;;;;;3.69;68.57;96180.47;4978144;28;20226;-73
2021/04/06 10:14:18;;;;;;;4.97;1.67;;;;;;;3.39;68.87;96178.31;4966726;28;20233;-72
2021/04/06 10:16:47;;;;;;;7.22;2.15;;;;;;;3.23;70.85;96172.13;4946547;28;20541;-74
2021/04/06 10:19:19;;;;;;;6.93;1.70;;;;;;;3.21;70.45;96173.91;4951594;28;20245;-73
2021/04/06 10:22:01;;;;;;;19.10;2.17;;;;;;;3.31;71.55;96160.63;4946803;28;20604;-73
2021/04/06 10:24:31;;;;;;;10.07;2.17;;;;;;;3.77;71.38;96168.13;4959352;28;20213;-73
2021/04/06 10:27:21;;;;;;;2.78;1.65;;;;;;;4.67;70.46;96171.78;4962242;28;20289;-74
2021/04/06 10:29:53;;;;;;;3.15;1.20;;;;;;;4.56;66.93;96164.53;4955711;28;20206;-74
2021/04/06 10:32:25;;;;;;;8.82;2.13;;;;;;;5.32;67.58;96157.44;4965205;28;20938;-73
2021/04/06 10:35:13;;;;;;;12.98;1.52;;;;;;;5.93;65.51;96156.09;4965950;28;20206;-72
2021/04/06 10:37:46;;;;;;;6.03;1.92;;;;;;;6.04;66.04;96158.94;4963263;28;20328;-74
2021/04/06 10:40:27;;;;;;;4.68;1.88;;;;;;;5.23;62.40;96147.56;4964894;28;20223;-73
2021/04/06 10:42:58;;;;;;;12.52;2.03;;;;;;;4.58;66.87;96169.63;4970430;28;20550;-73
2021/04/06 10:45:28;;;;;;;7.47;1.85;;;;;;;4.24;69.27;96159.16;4960661;28;20186;-73
2021/04/06 10:48:09;;;;;;;6.95;1.50;;;;;;;3.87;67.92;96160.81;4966861;28;20224;-74
2021/04/06 10:50:39;;;;;;;6.13;1.65;;;;;;;3.65;69.47;96163.47;4964349;28;20601;-73
2021/04/06 10:53:23;;;;;;;3.65;1.90;;;;;;;3.37;69.91;96152.66;4964115;28;20862;-73
2021/04/06 10:55:55;;;;;;;5.15;1.75;;;;;;;3.07;71.07;96151.34;4966751;28;20191;-73
2021/04/06 10:58:27;;;;;;;5.25;1.60;;;;;;;2.95;70.94;96151.00;4956915;28;20549;-72
2021/04/06 11:00:59;;;;;;;11.00;2.10;;;;;;;2.95;71.56;96148.44;4964871;28;20601;-74
2021/04/06 11:03:36;;;;;;;5.78;1.80;;;;;;;3.24;70.62;96143.78;4942887;28;20653;-75
2021/04/06 11:06:14;;;;;;;5.05;1.83;;;;;;;3.22;72.62;96145.56;4966057;28;20498;-75
2021/04/06 11:08:43;;;;;;;11.43;3.58;;;;;;;3.43;71.96;96143.84;4954894;28;20507;-73
2021/04/06 11:11:23;;;;;;;6.93;1.52;;;;;;;3.33;69.62;96143.41;4955220;28;20183;-73
2021/04/06 11:13:51;;;;;;;13.60;2.40;;;;;;;3.25;70.42;96136.91;4960256;28;20811;-73
2021/04/06 11:16:19;;;;;;;7.75;2.28;;;;;;;4.03;69.77;96136.09;4953842;28;20209;-73
2021/04/06 11:19:02;;;;;;;9.30;2.65;;;;;;;3.70;67.23;96132.41;4972847;28;20596;-74
2021/04/06 11:21:29;;;;;;;3.08;1.23;;;;;;;3.11;68.67;96136.63;4953382;28;20221;-73
2021/04/06 11:23:57;;;;;;;5.45;2.25;;;;;;;2.66;69.88;96123.03;4962629;28;20222;-74
2021/04/06 11:26:25;;;;;;;4.95;2.17;;;;;;;3.50;69.35;96116.97;4956893;28;20737;-73
2021/04/06 11:28:52;;;;;;;3.95;1.73;;;;;;;4.10;67.72;96115.16;4954280;28;20237;-73
2021/04/06 11:31:20;;;;;;;3.38;1.20;;;;;;;4.96;66.96;96117.94;4951020;28;20206;-72
2021/04/06 11:33:47;;;;;;;3.40;1.80;;;;;;;4.48;64.35;96111.66;4946944;28;20309;-72
2021/04/06 11:36:15;;;;;;;5.00;1.35;;;;;;;4.03;66.73;96111.19;4957536;28;20581;-73
2021/04/06 11:38:44;;;;;;;7.57;1.75;;;;;;;3.75;67.17;96115.84;4965350;28;20233;-73
2021/04/06 11:41:16;;;;;;;3.15;1.35;;;;;;;3.30;67.66;96109.28;4953458;28;20209;-74
2021/04/06 11:43:45;;;;;;;18.48;6.53;;;;;;;3.59;68.20;96107.13;4947487;28;20883;-73
2021/04/06 11:46:12;;;;;;;5.25;1.67;;;;;;;3.91;67.96;96104.03;4964854;28;20666;-73
2021/04/06 11:48:39;;;;;;;7.43;1.70;;;;;;;4.24;68.05;96098.19;4951559;28;20225;-73
2021/04/06 11:51:08;;;;;;;4.38;1.88;;;;;;;4.70;66.09;96090.00;4964200;28;20187;-72